sensor_id;sensor_type;location;lat;lon;timestamp;pressure;altitude;pressure_sealevel;temperature;humidity
22662;BME280;11497;52.222;21.246;2022-10-19T00:01:17;100851.69;;;13.32;100.00
22662;BME280;11497;52.222;21.246;2022-10-19T00:03:47;100851.91;;;13.26;100.00
22662;BME280;11497;52.222;21.246;2022-10-19T00:06:26;100851.13;;;13.24;100.00
22662;BME280;11497;52.222;21.246;2022-10-19T00:11:29;100848.19;;;13.07;100.00
22662;BME280;11497;52.222;21.246;2022-10-19T00:13:58;100837.78;;;13.04;100.00
22662;BME280;11497;52.222;21.246;2022-10-19T00:16:28;100843.63;;;12.88;100.00
22662;BME280;11497;52.222;21.246;2022-10-19T00:18:58;100841.63;;;12.70;100.00
22662;BME280;11497;52.222;21.246;2022-10-19T00:21:26;100843.44;;;12.43;100.00
22662;BME280;11497;52.222;21.246;2022-10-19T00:23:54;100841.53;;;12.48;100.00
22662;BME280;11497;52.222;21.246;2022-10-19T00:26:22;100847.94;;;12.40;100.00
22662;BME280;11497;52.222;21.246;2022-10-19T00:28:53;100851.78;;;12.29;100.00
22662;BME280;11497;52.222;21.246;2022-10-19T00:31:21;100843.50;;;12.15;100.00
22662;BME280;11497;52.222;21.246;2022-10-19T00:33:49;100849.97;;;12.05;100.00
22662;BME280;11497;52.222;21.246;2022-10-19T00:36:26;100854.69;;;11.94;100.00
22662;BME280;11497;52.222;21.246;2022-10-19T00:38:54;100858.53;;;11.82;100.00
22662;BME280;11497;52.222;21.246;2022-10-19T00:41:25;100849.97;;;11.76;100.00
22662;BME280;11497;52.222;21.246;2022-10-19T00:43:59;100853.72;;;11.69;100.00
22662;BME280;11497;52.222;21.246;2022-10-19T00:46:30;100850.56;;;11.57;100.00
22662;BME280;11497;52.222;21.246;2022-10-19T00:49:16;100850.72;;;11.51;100.00
22662;BME280;11497;52.222;21.246;2022-10-19T00:51:52;100852.50;;;11.51;100.00
22662;BME280;11497;52.222;21.246;2022-10-19T00:54:21;100850.44;;;11.31;100.00
22662;BME280;11497;52.222;21.246;2022-10-19T00:56:52;100849.47;;;11.35;100.00
22662;BME280;11497;52.222;21.246;2022-10-19T00:59:23;100840.31;;;11.20;100.00
22662;BME280;11497;52.222;21.246;2022-10-19T01:01:52;100840.44;;;11.16;100.00
22662;BME280;11497;52.222;21.246;2022-10-19T01:04:22;100846.66;;;11.12;100.00
22662;BME280;11497;52.222;21.246;2022-10-19T01:06:51;100852.88;;;11.08;100.00
22662;BME280;11497;52.222;21.246;2022-10-19T01:09:19;100849.94;;;10.87;100.00
22662;BME280;11497;52.222;21.246;2022-10-19T01:17:58;100837.69;;;10.57;100.00
22662;BME280;11497;52.222;21.246;2022-10-19T01:20:44;100838.78;;;10.48;100.00
22662;BME280;11497;52.222;21.246;2022-10-19T01:28:53;100834.25;;;10.55;100.00
22662;BME280;11497;52.222;21.246;2022-10-19T01:45:26;100805.41;;;10.87;100.00
22662;BME280;11497;52.222;21.246;2022-10-19T01:48:01;100801.00;;;10.89;100.00
22662;BME280;11497;52.222;21.246;2022-10-19T01:50:37;100803.28;;;11.02;100.00
22662;BME280;11497;52.222;21.246;2022-10-19T01:53:09;100801.59;;;10.99;100.00
22662;BME280;11497;52.222;21.246;2022-10-19T01:55:41;100801.56;;;11.00;100.00
22662;BME280;11497;52.222;21.246;2022-10-19T01:58:12;100798.81;;;11.05;100.00
22662;BME280;11497;52.222;21.246;2022-10-19T02:00:45;100797.22;;;11.29;100.00
22662;BME280;11497;52.222;21.246;2022-10-19T02:03:14;100797.22;;;11.29;100.00
22662;BME280;11497;52.222;21.246;2022-10-19T02:05:43;100797.28;;;11.27;100.00
22662;BME280;11497;52.222;21.246;2022-10-19T02:08:29;100795.50;;;11.28;100.00
22662;BME280;11497;52.222;21.246;2022-10-19T02:10:58;100779.50;;;11.37;100.00
22662;BME280;11497;52.222;21.246;2022-10-19T02:13:28;100795.25;;;11.37;100.00
22662;BME280;11497;52.222;21.246;2022-10-19T02:16:00;100784.94;;;11.31;100.00
22662;BME280;11497;52.222;21.246;2022-10-19T02:18:32;100781.50;;;11.29;100.00
22662;BME280;11497;52.222;21.246;2022-10-19T02:21:03;100782.84;;;11.42;100.00
22662;BME280;11497;52.222;21.246;2022-10-19T02:23:31;100785.47;;;11.42;100.00
22662;BME280;11497;52.222;21.246;2022-10-19T02:25:59;100787.34;;;11.66;100.00
22662;BME280;11497;52.222;21.246;2022-10-19T02:28:28;100782.84;;;11.70;100.00
22662;BME280;11497;52.222;21.246;2022-10-19T02:30:57;100784.03;;;11.61;100.00
22662;BME280;11497;52.222;21.246;2022-10-19T02:33:27;100783.25;;;11.58;100.00
22662;BME280;11497;52.222;21.246;2022-10-19T02:35:55;100776.69;;;11.71;100.00
22662;BME280;11497;52.222;21.246;2022-10-19T02:38:24;100778.59;;;11.68;100.00
22662;BME280;11497;52.222;21.246;2022-10-19T02:40:59;100776.78;;;11.70;100.00
22662;BME280;11497;52.222;21.246;2022-10-19T02:43:31;100772.97;;;11.80;100.00
22662;BME280;11497;52.222;21.246;2022-10-19T02:46:08;100771.63;;;11.66;100.00
22662;BME280;11497;52.222;21.246;2022-10-19T02:48:39;100774.63;;;11.54;100.00
22662;BME280;11497;52.222;21.246;2022-10-19T02:51:30;100769.38;;;11.54;100.00
22662;BME280;11497;52.222;21.246;2022-10-19T02:53:59;100768.47;;;11.55;100.00
22662;BME280;11497;52.222;21.246;2022-10-19T02:56:33;100765.84;;;11.55;100.00
22662;BME280;11497;52.222;21.246;2022-10-19T02:59:02;100767.41;;;11.33;100.00
22662;BME280;11497;52.222;21.246;2022-10-19T03:01:30;100766.72;;;11.26;100.00
22662;BME280;11497;52.222;21.246;2022-10-19T03:03:57;100771.75;;;11.34;100.00
22662;BME280;11497;52.222;21.246;2022-10-19T03:06:25;100769.53;;;11.22;100.00
22662;BME280;11497;52.222;21.246;2022-10-19T03:08:53;100761.28;;;11.05;100.00
22662;BME280;11497;52.222;21.246;2022-10-19T03:11:21;100762.44;;;10.94;100.00
22662;BME280;11497;52.222;21.246;2022-10-19T03:13:48;100770.22;;;10.97;100.00
22662;BME280;11497;52.222;21.246;2022-10-19T03:16:16;100770.31;;;10.94;100.00
22662;BME280;11497;52.222;21.246;2022-10-19T03:18:46;100769.06;;;10.78;100.00
22662;BME280;11497;52.222;21.246;2022-10-19T03:21:14;100765.69;;;10.73;100.00
22662;BME280;11497;52.222;21.246;2022-10-19T03:23:41;100765.16;;;10.60;100.00
22662;BME280;11497;52.222;21.246;2022-10-19T03:26:12;100768.31;;;10.41;100.00
22662;BME280;11497;52.222;21.246;2022-10-19T03:28:40;100763.28;;;10.35;100.00
22662;BME280;11497;52.222;21.246;2022-10-19T03:31:09;100753.13;;;10.22;100.00
22662;BME280;11497;52.222;21.246;2022-10-19T03:33:37;100760.00;;;10.26;100.00
22662;BME280;11497;52.222;21.246;2022-10-19T03:36:21;100753.97;;;10.23;100.00
22662;BME280;11497;52.222;21.246;2022-10-19T03:38:53;100757.25;;;10.31;100.00
22662;BME280;11497;52.222;21.246;2022-10-19T03:41:24;100753.97;;;10.23;100.00
22662;BME280;11497;52.222;21.246;2022-10-19T03:43:52;100758.06;;;10.33;100.00
22662;BME280;11497;52.222;21.246;2022-10-19T03:46:20;100751.28;;;10.58;100.00
22662;BME280;11497;52.222;21.246;2022-10-19T03:48:48;100763.03;;;10.42;100.00
22662;BME280;11497;52.222;21.246;2022-10-19T03:51:22;100761.81;;;10.55;100.00
22662;BME280;11497;52.222;21.246;2022-10-19T03:53:52;100751.31;;;10.57;100.00
22662;BME280;11497;52.222;21.246;2022-10-19T03:56:22;100759.41;;;10.48;100.00
22662;BME280;11497;52.222;21.246;2022-10-19T03:58:52;100753.84;;;10.60;100.00
22662;BME280;11497;52.222;21.246;2022-10-19T04:01:25;100748.34;;;10.69;100.00
22662;BME280;11497;52.222;21.246;2022-10-19T04:03:55;100742.50;;;10.59;100.00
22662;BME280;11497;52.222;21.246;2022-10-19T04:06:29;100744.22;;;10.60;100.00
22662;BME280;11497;52.222;21.246;2022-10-19T04:08:58;100745.56;;;10.75;100.00
22662;BME280;11497;52.222;21.246;2022-10-19T04:11:29;100742.50;;;10.90;100.00
22662;BME280;11497;52.222;21.246;2022-10-19T04:13:58;100747.72;;;10.90;100.00
22662;BME280;11497;52.222;21.246;2022-10-19T04:16:27;100752.69;;;10.99;100.00
22662;BME280;11497;52.222;21.246;2022-10-19T04:18:56;100743.09;;;11.00;100.00
22662;BME280;11497;52.222;21.246;2022-10-19T04:23:58;100741.69;;;11.18;100.00
22662;BME280;11497;52.222;21.246;2022-10-19T04:26:26;100743.50;;;11.16;100.00
22662;BME280;11497;52.222;21.246;2022-10-19T04:28:56;100738.25;;;11.16;100.00
22662;BME280;11497;52.222;21.246;2022-10-19T04:31:26;100737.13;;;11.24;100.00
22662;BME280;11497;52.222;21.246;2022-10-19T04:33:54;100736.72;;;11.37;100.00
22662;BME280;11497;52.222;21.246;2022-10-19T04:36:23;100732.97;;;11.45;99.67
22662;BME280;11497;52.222;21.246;2022-10-19T04:38:51;100740.16;;;11.39;99.20
22662;BME280;11497;52.222;21.246;2022-10-19T04:41:21;100735.69;;;11.42;98.96
22662;BME280;11497;52.222;21.246;2022-10-19T04:43:56;100735.69;;;11.42;98.75
22662;BME280;11497;52.222;21.246;2022-10-19T04:46:25;100726.09;;;11.41;98.55
22662;BME280;11497;52.222;21.246;2022-10-19T04:48:53;100726.81;;;11.46;97.92
22662;BME280;11497;52.222;21.246;2022-10-19T04:51:22;100725.63;;;11.56;97.37
22662;BME280;11497;52.222;21.246;2022-10-19T04:53:51;100727.00;;;11.40;97.25
22662;BME280;11497;52.222;21.246;2022-10-19T04:56:26;100724.81;;;11.54;97.08
22662;BME280;11497;52.222;21.246;2022-10-19T04:58:55;100722.47;;;11.45;96.51
22662;BME280;11497;52.222;21.246;2022-10-19T05:01:25;100728.53;;;11.47;96.43
22662;BME280;11497;52.222;21.246;2022-10-19T05:03:59;100722.47;;;11.45;96.59
22662;BME280;11497;52.222;21.246;2022-10-19T05:06:28;100722.28;;;11.51;96.79
22662;BME280;11497;52.222;21.246;2022-10-19T05:08:56;100714.34;;;11.54;95.77
22662;BME280;11497;52.222;21.246;2022-10-19T05:11:24;100709.19;;;11.51;95.67
22662;BME280;11497;52.222;21.246;2022-10-19T05:13:51;100707.28;;;11.56;95.56
22662;BME280;11497;52.222;21.246;2022-10-19T05:16:23;100700.59;;;11.46;95.40
22662;BME280;11497;52.222;21.246;2022-10-19T05:18:53;100700.41;;;11.52;95.07
22662;BME280;11497;52.222;21.246;2022-10-19T05:21:26;100712.53;;;11.56;94.87
22662;BME280;11497;52.222;21.246;2022-10-19T05:23:56;100717.66;;;11.59;94.36
22662;BME280;11497;52.222;21.246;2022-10-19T05:26:27;100719.75;;;11.48;94.43
22662;BME280;11497;52.222;21.246;2022-10-19T05:28:59;100720.44;;;11.55;93.80
22662;BME280;11497;52.222;21.246;2022-10-19T05:31:32;100717.19;;;11.47;93.85
22662;BME280;11497;52.222;21.246;2022-10-19T05:34:00;100721.19;;;11.58;93.64
22662;BME280;11497;52.222;21.246;2022-10-19T05:36:31;100725.00;;;11.48;93.75
22662;BME280;11497;52.222;21.246;2022-10-19T05:39:19;100723.09;;;11.53;93.79
22662;BME280;11497;52.222;21.246;2022-10-19T05:41:47;100725.28;;;11.67;93.46
22662;BME280;11497;52.222;21.246;2022-10-19T05:44:20;100715.75;;;11.64;93.29
22662;BME280;11497;52.222;21.246;2022-10-19T05:46:50;100719.00;;;11.71;92.94
22662;BME280;11497;52.222;21.246;2022-10-19T05:49:20;100726.22;;;11.92;92.16
22662;BME280;11497;52.222;21.246;2022-10-19T05:51:48;100727.28;;;11.87;91.67
22662;BME280;11497;52.222;21.246;2022-10-19T05:54:16;100722.94;;;11.86;91.41
22662;BME280;11497;52.222;21.246;2022-10-19T05:56:45;100721.13;;;11.88;91.04
22662;BME280;11497;52.222;21.246;2022-10-19T05:59:16;100720.00;;;11.95;90.57
22662;BME280;11497;52.222;21.246;2022-10-19T06:01:44;100718.19;;;11.97;89.97
22662;BME280;11497;52.222;21.246;2022-10-19T06:04:13;100725.06;;;12.01;89.57
22662;BME280;11497;52.222;21.246;2022-10-19T06:06:42;100711.69;;;11.82;89.19
22662;BME280;11497;52.222;21.246;2022-10-19T06:09:10;100709.44;;;11.70;89.37
22662;BME280;11497;52.222;21.246;2022-10-19T06:11:40;100707.78;;;11.68;89.25
22662;BME280;11497;52.222;21.246;2022-10-19T06:14:11;100715.66;;;11.68;89.49
22662;BME280;11497;52.222;21.246;2022-10-19T06:16:40;100710.19;;;11.74;89.87
22662;BME280;11497;52.222;21.246;2022-10-19T06:19:08;100706.28;;;11.87;89.76
22662;BME280;11497;52.222;21.246;2022-10-19T06:21:35;100702.84;;;11.85;89.41
22662;BME280;11497;52.222;21.246;2022-10-19T06:24:10;100702.34;;;12.00;88.93
22662;BME280;11497;52.222;21.246;2022-10-19T06:26:38;100705.84;;;12.01;88.58
22662;BME280;11497;52.222;21.246;2022-10-19T06:29:07;100708.66;;;12.19;87.62
22662;BME280;11497;52.222;21.246;2022-10-19T06:31:35;100701.78;;;12.15;86.76
22662;BME280;11497;52.222;21.246;2022-10-19T06:34:04;100717.53;;;12.15;86.58
22662;BME280;11497;52.222;21.246;2022-10-19T06:36:32;100717.13;;;12.27;86.42
22662;BME280;11497;52.222;21.246;2022-10-19T06:39:00;100712.38;;;12.62;85.64
22662;BME280;11497;52.222;21.246;2022-10-19T06:41:30;100728.38;;;12.79;84.44
22662;BME280;11497;52.222;21.246;2022-10-19T06:44:13;100724.16;;;12.98;82.91
22662;BME280;11497;52.222;21.246;2022-10-19T06:46:40;100724.81;;;13.04;81.86
22662;BME280;11497;52.222;21.246;2022-10-19T06:49:12;100723.03;;;13.04;81.37
22662;BME280;11497;52.222;21.246;2022-10-19T06:51:40;100729.16;;;13.05;80.90
22662;BME280;11497;52.222;21.246;2022-10-19T06:54:08;100727.22;;;13.10;81.05
22662;BME280;11497;52.222;21.246;2022-10-19T06:56:36;100719.31;;;13.10;81.16
22662;BME280;11497;52.222;21.246;2022-10-19T06:59:04;100727.38;;;13.05;81.55
22662;BME280;11497;52.222;21.246;2022-10-19T07:01:32;100731.44;;;13.14;80.97
22662;BME280;11497;52.222;21.246;2022-10-19T07:04:00;100734.78;;;12.95;81.38
22662;BME280;11497;52.222;21.246;2022-10-19T07:06:29;100726.50;;;12.83;81.99
22662;BME280;11497;52.222;21.246;2022-10-19T07:08:56;100736.81;;;12.64;82.41
22662;BME280;11497;52.222;21.246;2022-10-19T07:11:24;100717.97;;;12.53;83.00
22662;BME280;11497;52.222;21.246;2022-10-19T07:13:52;100718.31;;;12.44;83.27
22662;BME280;11497;52.222;21.246;2022-10-19T07:16:20;100707.53;;;12.51;83.69
22662;BME280;11497;52.222;21.246;2022-10-19T07:18:52;100710.00;;;12.79;83.17
22662;BME280;11497;52.222;21.246;2022-10-19T07:21:21;100716.13;;;13.02;82.05
22662;BME280;11497;52.222;21.246;2022-10-19T07:23:49;100731.69;;;13.31;80.61
22662;BME280;11497;52.222;21.246;2022-10-19T07:26:24;100728.59;;;13.20;79.88
22662;BME280;11497;52.222;21.246;2022-10-19T07:28:57;100733.94;;;12.95;79.91
22662;BME280;11497;52.222;21.246;2022-10-19T07:31:27;100722.94;;;13.07;80.54
22662;BME280;11497;52.222;21.246;2022-10-19T07:33:57;100734.91;;;13.16;79.94
22662;BME280;11497;52.222;21.246;2022-10-19T07:36:26;100738.16;;;13.44;79.82
22662;BME280;11497;52.222;21.246;2022-10-19T07:38:55;100739.56;;;13.31;79.28
22662;BME280;11497;52.222;21.246;2022-10-19T07:41:24;100747.44;;;13.08;79.15
22662;BME280;11497;52.222;21.246;2022-10-19T07:43:52;100742.19;;;13.08;79.47
22662;BME280;11497;52.222;21.246;2022-10-19T07:46:24;100740.56;;;13.04;79.28
22662;BME280;11497;52.222;21.246;2022-10-19T07:48:52;100743.56;;;13.18;78.57
22662;BME280;11497;52.222;21.246;2022-10-19T07:51:21;100743.88;;;13.09;78.54
22662;BME280;11497;52.222;21.246;2022-10-19T07:53:49;100747.00;;;13.20;78.59
22662;BME280;11497;52.222;21.246;2022-10-19T07:56:19;100743.97;;;13.52;77.98
22662;BME280;11497;52.222;21.246;2022-10-19T07:58:49;100750.69;;;13.59;76.81
22662;BME280;11497;52.222;21.246;2022-10-19T08:01:19;100747.22;;;13.81;75.92
22662;BME280;11497;52.222;21.246;2022-10-19T08:03:47;100747.16;;;13.82;75.58
22662;BME280;11497;52.222;21.246;2022-10-19T08:06:35;100735.38;;;13.91;75.31
22662;BME280;11497;52.222;21.246;2022-10-19T08:09:06;100737.56;;;14.02;75.01
22662;BME280;11497;52.222;21.246;2022-10-19T08:11:34;100740.25;;;14.00;74.52
22662;BME280;11497;52.222;21.246;2022-10-19T08:14:03;100747.28;;;13.99;74.36
22662;BME280;11497;52.222;21.246;2022-10-19T08:19:03;100741.09;;;14.01;73.44
22662;BME280;11497;52.222;21.246;2022-10-19T08:21:34;100733.81;;;14.07;73.38
22662;BME280;11497;52.222;21.246;2022-10-19T08:24:03;100728.94;;;14.18;73.51
22662;BME280;11497;52.222;21.246;2022-10-19T08:26:32;100728.63;;;14.06;72.99
22662;BME280;11497;52.222;21.246;2022-10-19T08:29:02;100724.09;;;13.87;73.03
22662;BME280;11497;52.222;21.246;2022-10-19T08:31:30;100729.66;;;13.81;73.78
22662;BME280;11497;52.222;21.246;2022-10-19T08:33:58;100723.00;;;13.93;73.90
22662;BME280;11497;52.222;21.246;2022-10-19T08:36:26;100725.25;;;13.82;74.11
22662;BME280;11497;52.222;21.246;2022-10-19T08:38:58;100735.22;;;13.52;74.90
22662;BME280;11497;52.222;21.246;2022-10-19T08:49:36;100731.72;;;13.51;76.32
22662;BME280;11497;52.222;21.246;2022-10-19T08:52:11;100723.69;;;13.34;76.80
22662;BME280;11497;52.222;21.246;2022-10-19T09:08:28;100752.16;;;13.23;79.39
22662;BME280;11497;52.222;21.246;2022-10-19T09:10:57;100741.50;;;13.48;79.25
22662;BME280;11497;52.222;21.246;2022-10-19T09:13:44;100744.09;;;13.49;79.16
22662;BME280;11497;52.222;21.246;2022-10-19T09:16:32;100744.09;;;13.49;79.56
22662;BME280;11497;52.222;21.246;2022-10-19T09:19:07;100758.25;;;13.23;79.96
22662;BME280;11497;52.222;21.246;2022-10-19T09:21:55;100753.63;;;13.30;80.33
22662;BME280;11497;52.222;21.246;2022-10-19T09:24:42;100749.72;;;13.40;80.27
22662;BME280;11497;52.222;21.246;2022-10-19T09:27:24;100756.69;;;13.41;80.90
22662;BME280;11497;52.222;21.246;2022-10-19T09:30:02;100753.69;;;13.50;80.49
22662;BME280;11497;52.222;21.246;2022-10-19T09:32:33;100750.31;;;13.47;80.72
22662;BME280;11497;52.222;21.246;2022-10-19T09:35:05;100756.25;;;13.52;80.68
22662;BME280;11497;52.222;21.246;2022-10-19T09:37:46;100757.56;;;13.63;79.99
22662;BME280;11497;52.222;21.246;2022-10-19T09:40:21;100763.13;;;13.34;80.45
22662;BME280;11497;52.222;21.246;2022-10-19T09:42:49;100766.94;;;13.47;80.16
22662;BME280;11497;52.222;21.246;2022-10-19T09:47:52;100780.53;;;13.37;79.95
22662;BME280;11497;52.222;21.246;2022-10-19T09:50:22;100793.25;;;13.47;79.75
22662;BME280;11497;52.222;21.246;2022-10-19T09:53:03;100793.81;;;13.09;80.75
22662;BME280;11497;52.222;21.246;2022-10-19T09:55:37;100790.81;;;12.71;80.69
22662;BME280;11497;52.222;21.246;2022-10-19T09:58:16;100789.69;;;12.28;81.51
22662;BME280;11497;52.222;21.246;2022-10-19T10:00:52;100798.06;;;12.13;84.21
22662;BME280;11497;52.222;21.246;2022-10-19T10:03:33;100801.84;;;11.78;85.87
22662;BME280;11497;52.222;21.246;2022-10-19T10:06:16;100801.47;;;11.62;87.59
22662;BME280;11497;52.222;21.246;2022-10-19T10:08:47;100801.75;;;11.53;88.43
22662;BME280;11497;52.222;21.246;2022-10-19T10:11:24;100799.56;;;11.68;89.31
22662;BME280;11497;52.222;21.246;2022-10-19T10:13:55;100807.94;;;11.79;89.88
22662;BME280;11497;52.222;21.246;2022-10-19T10:16:27;100805.91;;;11.88;89.87
22662;BME280;11497;52.222;21.246;2022-10-19T10:19:03;100799.41;;;12.00;89.96
22662;BME280;11497;52.222;21.246;2022-10-19T10:21:45;100801.94;;;12.03;89.89
22662;BME280;11497;52.222;21.246;2022-10-19T10:26:45;100804.50;;;12.05;90.26
22662;BME280;11497;52.222;21.246;2022-10-19T10:29:22;100800.19;;;12.28;90.55
22662;BME280;11497;52.222;21.246;2022-10-19T10:34:43;100794.09;;;13.26;88.04
22662;BME280;11497;52.222;21.246;2022-10-19T10:37:41;100798.78;;;13.41;85.69
22662;BME280;11497;52.222;21.246;2022-10-19T10:40:29;100798.09;;;13.36;83.25
22662;BME280;11497;52.222;21.246;2022-10-19T10:43:26;100796.91;;;13.43;81.99
22662;BME280;11497;52.222;21.246;2022-10-19T10:45:51;100802.72;;;13.51;81.20
22662;BME280;11497;52.222;21.246;2022-10-19T10:48:33;100794.75;;;13.76;80.84
22662;BME280;11497;52.222;21.246;2022-10-19T10:51:04;100796.44;;;13.99;80.20
22662;BME280;11497;52.222;21.246;2022-10-19T10:53:38;100797.41;;;13.96;79.19
22662;BME280;11497;52.222;21.246;2022-10-19T10:56:24;100799.66;;;14.27;77.86
22662;BME280;11497;52.222;21.246;2022-10-19T10:58:59;100795.06;;;14.53;76.83
22662;BME280;11497;52.222;21.246;2022-10-19T11:01:41;100797.44;;;14.59;75.55
22662;BME280;11497;52.222;21.246;2022-10-19T11:04:18;100789.50;;;14.79;74.26
22662;BME280;11497;52.222;21.246;2022-10-19T11:06:55;100794.41;;;14.68;73.36
22662;BME280;11497;52.222;21.246;2022-10-19T11:09:37;100804.56;;;14.57;73.38
22662;BME280;11497;52.222;21.246;2022-10-19T11:12:15;100807.31;;;14.54;73.43
22662;BME280;11497;52.222;21.246;2022-10-19T11:14:52;100797.97;;;14.47;72.94
22662;BME280;11497;52.222;21.246;2022-10-19T11:17:29;100808.38;;;14.50;72.11
22662;BME280;11497;52.222;21.246;2022-10-19T11:19:57;100809.63;;;14.19;72.36
22662;BME280;11497;52.222;21.246;2022-10-19T11:22:37;100800.88;;;13.77;72.81
22662;BME280;11497;52.222;21.246;2022-10-19T11:25:26;100804.28;;;13.57;73.75
22662;BME280;11497;52.222;21.246;2022-10-19T11:34:06;100798.88;;;13.38;77.64
22662;BME280;11497;52.222;21.246;2022-10-19T11:42:23;100802.03;;;13.46;77.58
22662;BME280;11497;52.222;21.246;2022-10-19T11:45:23;100809.78;;;13.73;75.97
22662;BME280;11497;52.222;21.246;2022-10-19T11:54:12;100815.00;;;13.74;73.61
22662;BME280;11497;52.222;21.246;2022-10-19T12:05:36;100795.81;;;14.95;67.82
22662;BME280;11497;52.222;21.246;2022-10-19T12:11:20;100811.78;;;14.52;66.55
22662;BME280;11497;52.222;21.246;2022-10-19T12:13:54;100825.06;;;14.28;67.55
22662;BME280;11497;52.222;21.246;2022-10-19T12:16:29;100824.69;;;13.94;67.96
22662;BME280;11497;52.222;21.246;2022-10-19T12:19:03;100828.50;;;13.65;68.02
22662;BME280;11497;52.222;21.246;2022-10-19T12:21:35;100818.31;;;13.34;67.04
22662;BME280;11497;52.222;21.246;2022-10-19T12:24:17;100830.44;;;13.38;64.84
22662;BME280;11497;52.222;21.246;2022-10-19T12:26:46;100827.91;;;13.35;63.44
22662;BME280;11497;52.222;21.246;2022-10-19T12:29:20;100832.25;;;13.36;62.95
22662;BME280;11497;52.222;21.246;2022-10-19T12:31:49;100832.38;;;13.08;62.20
22662;BME280;11497;52.222;21.246;2022-10-19T12:37:24;100832.94;;;13.18;61.82
22662;BME280;11497;52.222;21.246;2022-10-19T12:40:23;100832.22;;;13.13;61.41
22662;BME280;11497;52.222;21.246;2022-10-19T12:58:52;100833.13;;;14.46;58.23
22662;BME280;11497;52.222;21.246;2022-10-19T13:04:22;100830.91;;;15.35;55.47
22662;BME280;11497;52.222;21.246;2022-10-19T13:07:02;100840.81;;;15.49;54.89
22662;BME280;11497;52.222;21.246;2022-10-19T13:09:45;100834.19;;;15.40;55.10
22662;BME280;11497;52.222;21.246;2022-10-19T13:14:54;100846.47;;;14.82;54.81
22662;BME280;11497;52.222;21.246;2022-10-19T13:22:45;100876.25;;;13.54;56.84
22662;BME280;11497;52.222;21.246;2022-10-19T13:25:30;100879.22;;;13.22;58.11
22662;BME280;11497;52.222;21.246;2022-10-19T13:36:07;100899.19;;;11.68;64.93
22662;BME280;11497;52.222;21.246;2022-10-19T13:41:25;100899.84;;;11.74;66.42
22662;BME280;11497;52.222;21.246;2022-10-19T13:44:00;100901.53;;;11.47;65.66
22662;BME280;11497;52.222;21.246;2022-10-19T14:11:49;100910.28;;;11.46;63.46
22662;BME280;11497;52.222;21.246;2022-10-19T14:14:21;100923.56;;;11.40;63.35
22662;BME280;11497;52.222;21.246;2022-10-19T14:21:58;100930.69;;;11.35;63.31
22662;BME280;11497;52.222;21.246;2022-10-19T14:24:33;100934.50;;;11.25;63.63
22662;BME280;11497;52.222;21.246;2022-10-19T14:27:04;100932.13;;;11.16;64.58
22662;BME280;11497;52.222;21.246;2022-10-19T14:29:52;100937.84;;;10.97;64.52
22662;BME280;11497;52.222;21.246;2022-10-19T14:32:24;100934.41;;;10.95;64.42
22662;BME280;11497;52.222;21.246;2022-10-19T14:34:54;100940.78;;;10.85;63.95
22662;BME280;11497;52.222;21.246;2022-10-19T14:37:25;100929.09;;;10.64;63.55
22662;BME280;11497;52.222;21.246;2022-10-19T14:40:21;100946.69;;;10.59;63.71
22662;BME280;11497;52.222;21.246;2022-10-19T14:42:55;100946.41;;;10.70;63.84
22662;BME280;11497;52.222;21.246;2022-10-19T14:45:30;100946.31;;;10.39;64.25
22662;BME280;11497;52.222;21.246;2022-10-19T14:48:03;100951.94;;;10.22;64.23
22662;BME280;11497;52.222;21.246;2022-10-19T14:50:49;100948.66;;;10.11;64.78
22662;BME280;11497;52.222;21.246;2022-10-19T14:56:09;100960.69;;;10.18;66.05
22662;BME280;11497;52.222;21.246;2022-10-19T14:58:50;100963.13;;;10.29;65.76
22662;BME280;11497;52.222;21.246;2022-10-19T15:01:20;100972.34;;;10.44;65.62
22662;BME280;11497;52.222;21.246;2022-10-19T15:03:49;100977.44;;;10.50;65.02
22662;BME280;11497;52.222;21.246;2022-10-19T15:06:29;100975.72;;;10.49;64.66
22662;BME280;11497;52.222;21.246;2022-10-19T15:09:02;100976.78;;;10.40;65.10
22662;BME280;11497;52.222;21.246;2022-10-19T15:11:39;100973.78;;;10.18;65.41
22662;BME280;11497;52.222;21.246;2022-10-19T15:14:16;100980.22;;;10.02;65.86
22662;BME280;11497;52.222;21.246;2022-10-19T15:16:52;100975.28;;;9.90;66.67
22662;BME280;11497;52.222;21.246;2022-10-19T15:19:38;100973.69;;;9.83;66.98
22662;BME280;11497;52.222;21.246;2022-10-19T15:27:29;100992.72;;;9.46;69.52
22662;BME280;11497;52.222;21.246;2022-10-19T15:32:50;101002.72;;;9.24;70.58
22662;BME280;11497;52.222;21.246;2022-10-19T15:35:28;101003.72;;;9.16;71.29
22662;BME280;11497;52.222;21.246;2022-10-19T15:38:05;101010.88;;;9.08;71.79
22662;BME280;11497;52.222;21.246;2022-10-19T15:40:36;101018.75;;;9.05;71.65
22662;BME280;11497;52.222;21.246;2022-10-19T15:46:23;101018.94;;;8.92;71.59
22662;BME280;11497;52.222;21.246;2022-10-19T15:48:53;101022.47;;;8.90;71.33
22662;BME280;11497;52.222;21.246;2022-10-19T15:56:22;101034.59;;;8.92;71.47
22662;BME280;11497;52.222;21.246;2022-10-19T15:58:52;101052.00;;;8.93;71.67
22662;BME280;11497;52.222;21.246;2022-10-19T16:01:23;101044.91;;;9.02;71.40
22662;BME280;11497;52.222;21.246;2022-10-19T16:03:53;101048.59;;;8.88;71.19
22662;BME280;11497;52.222;21.246;2022-10-19T16:06:23;101051.41;;;8.75;71.89
22662;BME280;11497;52.222;21.246;2022-10-19T16:08:52;101056.00;;;8.59;72.09